Terminal Aerodrome Forecast
Issued by NWS Wichita, KS

Home | Current Version | Previous Version | Graphics & Text | Print | Product List | Glossary Off
Versions: 1 2 3 4 5 6 7 8 9 10 11 12 13 14 15 16 17 18 19 20 21 22 23 24 25

096
FTUS43 KICT 290520
TAFICT
TAF
KICT 290520Z 2906/3006 02018G26KT 4SM -TSRA OVC012CB
      TEMPO 2906/2910 2SM TSRA OVC006CB
     FM291000 05017G24KT 5SM -TSRA OVC008CB
      TEMPO 2910/2913 2SM TSRA OVC005CB
     FM291500 11015G23KT 5SM -SHRA BR OVC015
     FM291900 15014KT 6SM -SHRA OVC015=

USA.gov is the U.S. government's official web portal to all federal, state and local government web resources and services.